createdAt,value
2019-01-28T00:09:51.317Z,-1.28
2019-01-28T00:19:56.015Z,-0.46
2019-01-28T00:30:03.173Z,-0.72
2019-01-28T00:40:12.847Z,-0.67
2019-01-28T00:50:22.858Z,-0.29
2019-01-28T01:00:32.750Z,-0.12
2019-01-28T01:10:39.346Z,-0.20
2019-01-28T01:20:44.284Z,-0.12
2019-01-28T01:30:48.998Z,-0.22
2019-01-28T01:40:53.745Z,0.04
2019-01-28T01:50:58.549Z,-0.05
2019-01-28T02:01:03.423Z,-0.17
2019-01-28T02:11:08.191Z,0.05
2019-01-28T02:21:12.971Z,-0.20
2019-01-28T02:31:17.852Z,-0.41
2019-01-28T02:41:22.625Z,-0.23
2019-01-28T02:51:27.235Z,-0.28
2019-01-28T03:01:31.883Z,-0.18
2019-01-28T03:11:36.745Z,-0.70
2019-01-28T03:21:41.512Z,-0.03
2019-01-28T03:31:46.297Z,0.16
2019-01-28T03:41:51.404Z,0.06
2019-01-28T03:51:56.258Z,0.33
2019-01-28T04:02:02.420Z,0.97
2019-01-28T04:12:07.454Z,0.66
2019-01-28T04:22:12.211Z,0.93
2019-01-28T04:32:17.856Z,0.48
2019-01-28T04:42:24.695Z,0.51
2019-01-28T04:52:29.821Z,0.12
2019-01-28T05:02:35.984Z,0.76
2019-01-28T05:12:42.432Z,-0.01
2019-01-28T05:22:47.319Z,0.58
2019-01-28T05:32:52.105Z,0.16
2019-01-28T05:42:56.858Z,0.32
2019-01-28T05:53:01.632Z,0.13
2019-01-28T06:03:06.409Z,0.25
2019-01-28T06:13:11.184Z,0.26
2019-01-28T06:23:15.961Z,0.67
2019-01-28T06:33:20.728Z,0.67
2019-01-28T06:43:25.516Z,1.27
2019-01-28T06:53:30.383Z,0.95
2019-01-28T07:03:35.360Z,1.24
2019-01-28T07:13:40.138Z,0.65
2019-01-28T07:23:46.343Z,1.81
2019-01-28T07:33:51.146Z,2.13
2019-01-28T07:43:55.892Z,1.84
2019-01-28T07:54:00.595Z,2.09
2019-01-28T08:04:06.466Z,1.83
2019-01-28T08:14:11.077Z,2.34
2019-01-28T08:24:15.901Z,2.48
2019-01-28T08:34:22.757Z,3.00
2019-01-28T08:44:27.718Z,3.14
2019-01-28T08:54:32.598Z,3.16
2019-01-28T09:04:37.371Z,3.19
2019-01-28T09:14:42.144Z,3.55
2019-01-28T09:24:46.936Z,3.78
2019-01-28T09:50:12.532Z,4.01
2019-01-28T10:00:29.213Z,4.74
2019-01-28T10:10:33.920Z,5.04
2019-01-28T10:20:44.539Z,4.91
2019-01-28T10:30:48.208Z,5.08
2019-01-28T10:40:53.259Z,6.14
2019-01-28T10:50:58.032Z,5.22
2019-01-28T11:01:02.811Z,5.67
2019-01-28T11:11:07.478Z,6.18
2019-01-28T11:21:12.454Z,6.57
2019-01-28T11:31:17.559Z,7.38
2019-01-28T11:41:22.420Z,7.74
2019-01-28T11:51:27.095Z,6.45
2019-01-28T12:01:32.892Z,6.65
2019-01-28T12:11:37.672Z,7.39
2019-01-28T12:21:42.445Z,8.01
2019-01-28T12:31:47.224Z,7.04
2019-01-28T12:41:52.711Z,7.63
2019-01-28T12:51:57.501Z,7.94
2019-01-28T13:02:02.267Z,8.08
2019-01-28T13:12:07.035Z,7.90
2019-01-28T13:22:11.811Z,7.43
2019-01-28T13:32:16.591Z,7.13
2019-01-28T13:42:21.672Z,7.11
2019-01-28T13:52:26.777Z,7.76
2019-01-28T14:02:32.327Z,7.31
2019-01-28T14:12:38.718Z,7.00
2019-01-28T14:22:44.049Z,7.14
2019-01-28T14:32:48.827Z,6.59
2019-01-28T14:42:53.600Z,6.45
2019-01-28T14:52:58.381Z,6.03
2019-01-28T15:03:04.299Z,7.36
2019-01-28T15:13:09.471Z,7.52
2019-01-28T15:23:14.862Z,5.73
2019-01-28T15:33:19.646Z,5.89
2019-01-28T15:43:26.167Z,6.12
2019-01-28T15:53:32.053Z,5.52
2019-01-28T16:03:36.630Z,5.47
2019-01-28T16:13:41.397Z,5.49
2019-01-28T16:23:46.153Z,5.57
2019-01-28T16:33:52.178Z,4.66
2019-01-28T16:43:57.815Z,4.93
2019-01-28T16:54:03.776Z,4.61
2019-01-28T17:04:09.828Z,4.29
2019-01-28T17:14:14.858Z,3.91
2019-01-28T17:24:20.234Z,3.95
2019-01-28T17:34:25.976Z,3.17
2019-01-28T17:48:02.660Z,11.88
2019-01-28T17:58:07.458Z,7.95
2019-01-28T18:08:12.336Z,5.91
2019-01-28T18:20:51.201Z,6.64
2019-01-28T18:25:50.335Z,6.31
2019-01-28T18:30:55.091Z,5.88
2019-01-28T18:36:05.538Z,5.20
2019-01-28T18:41:06.507Z,6.14
2019-01-28T18:46:12.019Z,5.67
2019-01-28T18:51:16.708Z,5.87
2019-01-28T18:56:21.351Z,5.92
2019-01-28T19:01:26.559Z,6.12
2019-01-28T19:06:38.618Z,5.48
2019-01-28T19:11:51.353Z,5.75
2019-01-28T19:16:57.732Z,6.40
2019-01-28T19:22:05.242Z,6.63
2019-01-28T19:27:09.859Z,6.14
2019-01-28T19:32:14.620Z,6.56
2019-01-28T19:37:19.463Z,6.87
2019-01-28T19:42:24.598Z,7.46
2019-01-28T19:47:29.631Z,7.25
2019-01-28T19:52:34.304Z,6.95
2019-01-28T19:57:39.253Z,6.57
2019-01-28T20:02:43.999Z,6.82
2019-01-28T20:07:48.740Z,7.57
2019-01-28T20:12:53.487Z,6.82
2019-01-28T20:17:58.130Z,7.34
2019-01-28T20:23:02.835Z,7.08
2019-01-28T20:28:07.630Z,6.93
2019-01-28T20:33:12.565Z,6.95
2019-01-28T20:38:17.323Z,7.03
2019-01-28T20:43:24.027Z,6.87
2019-01-28T20:48:28.420Z,6.15
2019-01-28T20:53:33.166Z,6.80
2019-01-28T20:58:37.908Z,6.29
2019-01-28T21:03:42.649Z,5.23
2019-01-28T21:08:47.393Z,4.55
2019-01-28T21:13:52.293Z,4.84
2019-01-28T21:18:57.073Z,4.83
2019-01-28T21:24:01.672Z,5.85
2019-01-28T21:29:06.299Z,5.94
2019-01-28T21:34:11.591Z,6.51
2019-01-28T21:39:16.261Z,5.55
2019-01-28T21:44:20.904Z,6.16
2019-01-28T21:49:25.551Z,5.61
2019-01-28T21:54:30.183Z,5.05
2019-01-28T21:59:34.804Z,5.32
2019-01-28T22:04:39.667Z,4.85
2019-01-28T22:09:44.410Z,4.32
2019-01-28T22:14:49.043Z,4.97
2019-01-28T22:19:53.791Z,5.33
2019-01-28T22:24:58.630Z,5.17
2019-01-28T22:30:03.289Z,5.40
2019-01-28T22:35:09.145Z,5.67
2019-01-28T22:40:15.933Z,5.47
2019-01-28T22:45:21.080Z,5.66
2019-01-28T22:50:26.906Z,6.14
2019-01-28T22:55:31.459Z,5.68
2019-01-28T23:00:50.367Z,6.62
2019-01-28T23:05:55.203Z,6.46
2019-01-28T23:10:59.850Z,6.16
2019-01-28T23:16:04.598Z,6.20
2019-01-28T23:21:09.335Z,5.82
2019-01-28T23:26:13.993Z,6.23
2019-01-28T23:31:18.833Z,6.28
2019-01-28T23:36:23.571Z,6.45
2019-01-28T23:41:28.098Z,6.42
2019-01-28T23:46:32.849Z,6.62
2019-01-28T23:51:37.475Z,5.80
2019-01-28T23:56:42.024Z,6.15
